Time;durP1;ratioP1;P1;durP2;ratioP2;P2;SDS_P1;SDS_P2;PMS_P1;PMS_P2;Temp;Humidity;BMP_temperature;BMP_pressure;BME280_temperature;BME280_humidity;BME280_pressure;Samples;Min_cycle;Max_cycle;Signal;HPM_P1;HPM_P2
2021/06/30 00:01:54;;;;;;;7.45;4.35;;;15.80;99.90;;;;;;5120838;27;20108;-69
2021/06/30 00:04:38;;;;;;;8.27;4.00;;;15.80;99.90;;;;;;5059326;28;20108;-69
2021/06/30 00:07:22;;;;;;;5.35;3.50;;;15.80;99.90;;;;;;5108987;27;20433;-69
2021/06/30 00:10:08;;;;;;;5.85;3.85;;;15.70;99.90;;;;;;5063583;28;21135;-69
2021/06/30 00:12:55;;;;;;;8.10;4.35;;;15.70;99.90;;;;;;5076651;28;20111;-69
2021/06/30 00:15:41;;;;;;;5.18;3.80;;;15.70;99.90;;;;;;5052159;28;20107;-69
2021/06/30 00:18:27;;;;;;;5.38;3.65;;;15.60;99.90;;;;;;5118557;27;20199;-69
2021/06/30 00:21:24;;;;;;;6.47;4.18;;;15.70;99.90;;;;;;5129908;27;20416;-69
2021/06/30 00:24:06;;;;;;;8.25;3.70;;;15.60;99.90;;;;;;5104652;27;20114;-69
2021/06/30 00:26:50;;;;;;;6.00;3.72;;;15.70;99.90;;;;;;5124594;27;20112;-69
2021/06/30 00:29:34;;;;;;;5.50;3.58;;;15.60;99.90;;;;;;5068856;28;20449;-69
2021/06/30 00:32:20;;;;;;;8.30;3.80;;;15.60;99.90;;;;;;5088267;28;20116;-69
2021/06/30 00:35:06;;;;;;;6.13;3.20;;;15.70;99.90;;;;;;5080523;28;20506;-70
2021/06/30 00:37:50;;;;;;;6.03;3.70;;;15.60;99.90;;;;;;5080320;27;20524;-69
2021/06/30 00:40:34;;;;;;;6.88;3.95;;;15.70;99.90;;;;;;5064442;28;20485;-69
2021/06/30 00:43:19;;;;;;;6.47;4.03;;;15.60;99.90;;;;;;5096045;27;20117;-68
2021/06/30 00:46:04;;;;;;;6.55;3.92;;;15.60;99.90;;;;;;5034166;28;20112;-69
2021/06/30 00:48:48;;;;;;;5.65;3.78;;;15.60;99.90;;;;;;5063666;28;20110;-69
2021/06/30 00:51:33;;;;;;;6.38;3.90;;;15.60;99.90;;;;;;5034575;28;20097;-69
2021/06/30 00:54:17;;;;;;;10.70;3.65;;;15.50;99.90;;;;;;5116786;27;20109;-69
2021/06/30 00:56:59;;;;;;;14.10;4.00;;;15.50;99.90;;;;;;5068064;28;20904;-70
2021/06/30 00:59:45;;;;;;;6.68;4.07;;;15.50;99.90;;;;;;5108917;27;20504;-69
2021/06/30 01:02:25;;;;;;;6.90;4.40;;;15.40;99.90;;;;;;5121247;27;20104;-69
2021/06/30 01:05:10;;;;;;;5.32;3.47;;;15.40;99.90;;;;;;5068295;28;20390;-69
2021/06/30 01:07:54;;;;;;;8.02;4.35;;;15.40;99.90;;;;;;5064044;28;20383;-69
2021/06/30 01:10:39;;;;;;;7.07;4.18;;;15.40;99.90;;;;;;5108033;27;20388;-69
2021/06/30 01:13:24;;;;;;;8.50;4.57;;;15.40;99.90;;;;;;5121277;27;20105;-68
2021/06/30 01:16:11;;;;;;;9.38;4.70;;;15.40;99.90;;;;;;5122997;27;20566;-69
2021/06/30 01:19:10;;;;;;;9.00;4.50;;;15.30;99.90;;;;;;5068266;28;20378;-69
2021/06/30 01:21:57;;;;;;;6.57;3.83;;;15.30;99.90;;;;;;5078027;28;20481;-69
2021/06/30 01:24:42;;;;;;;5.55;3.92;;;15.20;99.90;;;;;;5077102;28;20125;-69
2021/06/30 01:27:32;;;;;;;7.28;4.28;;;15.20;99.90;;;;;;5051870;28;20391;-69
2021/06/30 01:30:13;;;;;;;5.93;3.92;;;15.20;99.90;;;;;;5068848;28;20390;-68
2021/06/30 01:32:57;;;;;;;5.45;3.67;;;15.20;99.90;;;;;;5083394;28;20121;-69
2021/06/30 01:35:42;;;;;;;6.55;4.55;;;15.20;99.90;;;;;;5071143;28;20107;-69
2021/06/30 01:38:29;;;;;;;7.25;4.45;;;15.30;99.90;;;;;;5059255;28;20112;-69
2021/06/30 01:41:15;;;;;;;8.50;4.15;;;15.20;99.90;;;;;;5094073;27;20120;-68
2021/06/30 01:43:58;;;;;;;7.70;4.78;;;15.20;99.90;;;;;;5068235;28;20548;-69
2021/06/30 01:46:40;;;;;;;8.80;4.47;;;15.30;99.90;;;;;;5057500;28;20955;-69
2021/06/30 01:49:21;;;;;;;8.30;4.57;;;15.20;99.90;;;;;;5129136;27;20406;-69
2021/06/30 01:52:00;;;;;;;8.48;4.38;;;15.20;99.90;;;;;;5080590;28;20477;-68
2021/06/30 01:54:44;;;;;;;9.88;4.15;;;15.20;99.90;;;;;;5085451;28;20122;-70
2021/06/30 01:57:24;;;;;;;6.38;4.35;;;15.20;99.90;;;;;;5068655;28;20391;-69
2021/06/30 02:00:11;;;;;;;6.20;4.72;;;15.20;99.90;;;;;;5068535;28;20394;-69
2021/06/30 02:03:00;;;;;;;5.63;4.00;;;15.20;99.90;;;;;;5081165;27;20406;-69
2021/06/30 02:05:44;;;;;;;10.07;5.38;;;15.20;99.90;;;;;;5112952;27;20306;-69
2021/06/30 02:08:29;;;;;;;5.65;4.65;;;15.20;99.90;;;;;;5067271;28;20402;-69
2021/06/30 02:11:14;;;;;;;6.95;4.88;;;15.10;99.90;;;;;;5088343;28;20106;-69
2021/06/30 02:13:58;;;;;;;9.65;5.10;;;15.10;99.90;;;;;;5089977;27;20394;-69
2021/06/30 02:16:44;;;;;;;16.20;4.90;;;15.10;99.90;;;;;;5075677;28;20739;-68
2021/06/30 02:19:29;;;;;;;9.60;5.15;;;15.00;99.90;;;;;;5129151;27;20379;-70
2021/06/30 02:22:14;;;;;;;8.45;4.57;;;15.00;99.90;;;;;;5087319;28;20564;-69
2021/06/30 02:24:58;;;;;;;9.18;5.13;;;15.00;99.90;;;;;;5096446;27;20118;-69
2021/06/30 02:27:43;;;;;;;8.88;5.22;;;15.00;99.90;;;;;;5123597;27;20418;-69
2021/06/30 02:30:31;;;;;;;9.90;5.20;;;14.90;99.90;;;;;;5113002;27;20105;-69
2021/06/30 02:33:16;;;;;;;6.97;4.82;;;14.90;99.90;;;;;;5055407;28;20454;-69
2021/06/30 02:35:55;;;;;;;9.25;5.82;;;14.90;99.90;;;;;;5070905;27;20452;-68
2021/06/30 02:38:40;;;;;;;8.60;5.70;;;14.90;99.90;;;;;;5058219;28;20478;-68
2021/06/30 02:41:23;;;;;;;8.90;4.72;;;14.90;99.90;;;;;;5068258;28;20383;-69
2021/06/30 02:44:09;;;;;;;11.43;5.13;;;14.90;99.90;;;;;;5047247;28;20396;-69
2021/06/30 02:46:53;;;;;;;6.97;4.50;;;15.00;99.90;;;;;;5149151;27;20454;-69
2021/06/30 02:49:38;;;;;;;9.07;5.07;;;15.00;99.90;;;;;;5122070;27;20114;-69
2021/06/30 02:52:17;;;;;;;7.70;4.60;;;15.00;99.90;;;;;;5084226;27;20435;-67
2021/06/30 02:55:05;;;;;;;7.93;5.15;;;15.00;99.90;;;;;;5101749;27;20453;-69
2021/06/30 02:57:49;;;;;;;7.78;4.95;;;15.10;99.90;;;;;;5087564;28;20098;-69
2021/06/30 03:00:34;;;;;;;7.18;4.55;;;15.10;99.90;;;;;;5128955;27;20876;-69
2021/06/30 03:03:18;;;;;;;9.40;4.53;;;15.20;99.90;;;;;;5111786;27;20134;-69
2021/06/30 03:05:58;;;;;;;7.88;4.82;;;15.10;99.90;;;;;;5040922;28;20112;-68
2021/06/30 03:08:42;;;;;;;9.43;4.75;;;15.10;99.90;;;;;;5090075;27;20102;-69
2021/06/30 03:11:27;;;;;;;9.38;4.50;;;15.10;99.90;;;;;;5061838;28;20964;-69
2021/06/30 03:14:11;;;;;;;7.95;5.15;;;15.10;99.90;;;;;;5120068;27;20108;-70
2021/06/30 03:16:56;;;;;;;8.23;4.90;;;15.20;99.90;;;;;;5108328;27;20131;-68
2021/06/30 03:19:41;;;;;;;14.10;5.28;;;15.10;99.90;;;;;;5112427;27;20585;-69
2021/06/30 03:22:27;;;;;;;8.27;5.03;;;15.10;99.90;;;;;;5077959;28;20113;-70
2021/06/30 03:25:14;;;;;;;9.68;5.03;;;15.10;99.90;;;;;;5071547;28;20107;-68
2021/06/30 03:27:59;;;;;;;8.32;4.93;;;15.00;99.90;;;;;;5097986;27;20307;-69
2021/06/30 03:30:44;;;;;;;8.77;5.20;;;15.10;99.90;;;;;;5058012;28;20505;-69
2021/06/30 03:33:29;;;;;;;10.55;4.95;;;15.10;99.90;;;;;;5116357;27;20109;-70
2021/06/30 03:36:13;;;;;;;6.25;3.90;;;15.10;99.90;;;;;;5084886;28;20538;-69
2021/06/30 03:38:57;;;;;;;7.57;4.53;;;15.10;99.90;;;;;;5056405;28;20798;-68
2021/06/30 03:41:42;;;;;;;8.02;4.43;;;15.10;99.90;;;;;;5116029;27;20726;-69
2021/06/30 03:44:28;;;;;;;6.38;3.97;;;15.10;99.90;;;;;;5113491;27;20661;-69
2021/06/30 03:47:13;;;;;;;6.93;4.25;;;15.20;99.90;;;;;;5068157;28;20508;-69
2021/06/30 03:49:58;;;;;;;7.30;4.20;;;15.20;99.90;;;;;;5081696;28;20568;-69
2021/06/30 03:52:42;;;;;;;7.80;4.47;;;15.20;99.90;;;;;;5087968;28;20110;-69
2021/06/30 03:55:27;;;;;;;7.30;4.35;;;15.20;99.90;;;;;;5076079;28;21520;-68
2021/06/30 03:58:13;;;;;;;6.25;4.10;;;15.30;99.90;;;;;;5067656;28;20395;-68
2021/06/30 04:00:58;;;;;;;8.02;4.25;;;15.30;99.90;;;;;;5118040;27;20105;-69
2021/06/30 04:03:45;;;;;;;7.20;3.97;;;15.30;99.90;;;;;;5058741;28;20570;-68
2021/06/30 04:06:30;;;;;;;5.90;3.90;;;15.40;99.90;;;;;;5149175;27;20319;-69
2021/06/30 04:09:15;;;;;;;7.90;3.90;;;15.50;99.90;;;;;;5088216;28;20304;-69
2021/06/30 04:11:59;;;;;;;8.80;4.13;;;15.60;99.90;;;;;;5087568;28;20101;-69
2021/06/30 04:14:44;;;;;;;5.68;3.42;;;15.70;99.90;;;;;;5086567;28;20106;-69
2021/06/30 04:17:29;;;;;;;7.53;3.47;;;15.80;99.90;;;;;;5068249;28;20927;-68
2021/06/30 04:20:13;;;;;;;8.95;3.60;;;16.00;99.90;;;;;;5088593;27;20899;-69
2021/06/30 04:22:58;;;;;;;11.13;4.03;;;16.10;99.90;;;;;;5115962;27;20104;-69
2021/06/30 04:25:37;;;;;;;12.63;3.55;;;16.20;99.90;;;;;;5069017;28;20516;-67
2021/06/30 04:28:22;;;;;;;8.82;4.00;;;16.20;99.90;;;;;;5087344;28;20122;-69
2021/06/30 04:31:02;;;;;;;7.25;3.25;;;16.20;99.90;;;;;;5089239;28;20110;-69
2021/06/30 04:33:42;;;;;;;6.90;3.80;;;16.20;99.90;;;;;;5098251;27;20117;-69
2021/06/30 04:36:27;;;;;;;5.95;3.03;;;16.20;99.90;;;;;;5069610;28;20518;-69
2021/06/30 04:39:13;;;;;;;7.75;3.45;;;16.20;99.90;;;;;;5066851;28;20120;-68
2021/06/30 04:41:57;;;;;;;6.25;3.00;;;16.30;99.90;;;;;;5069439;28;20109;-69
2021/06/30 04:44:42;;;;;;;7.90;3.00;;;16.20;99.90;;;;;;5084616;28;20115;-69
2021/06/30 04:47:26;;;;;;;6.63;3.05;;;16.20;99.90;;;;;;5087687;28;20120;-69
2021/06/30 04:50:11;;;;;;;10.45;3.20;;;16.10;99.90;;;;;;5066483;28;20520;-67
2021/06/30 04:52:55;;;;;;;6.50;3.15;;;16.00;99.90;;;;;;5088058;27;20389;-68
2021/06/30 04:55:40;;;;;;;7.68;2.92;;;16.00;99.90;;;;;;5062760;28;20402;-68
2021/06/30 04:58:20;;;;;;;4.32;2.95;;;15.90;99.90;;;;;;5102722;27;20988;-67
2021/06/30 05:01:05;;;;;;;3.72;2.25;;;16.00;99.90;;;;;;5079475;28;20125;-68
2021/06/30 05:03:49;;;;;;;4.55;2.80;;;15.80;99.90;;;;;;5053138;28;20842;-69
2021/06/30 05:06:35;;;;;;;4.15;2.70;;;15.80;99.90;;;;;;5075894;28;20117;-68
2021/06/30 05:09:20;;;;;;;4.25;2.47;;;15.80;99.90;;;;;;5065867;28;20895;-68
2021/06/30 05:12:05;;;;;;;4.03;2.33;;;15.80;99.90;;;;;;5078572;28;20105;-67
2021/06/30 05:14:49;;;;;;;5.20;2.42;;;15.80;99.90;;;;;;5079912;28;20106;-68
2021/06/30 05:17:34;;;;;;;7.80;2.67;;;15.80;99.90;;;;;;5063240;28;21035;-69
2021/06/30 05:20:13;;;;;;;7.07;2.25;;;15.80;99.90;;;;;;5059261;28;20439;-69
2021/06/30 05:22:58;;;;;;;6.63;1.60;;;15.90;99.90;;;;;;5043147;28;20104;-67
2021/06/30 05:25:43;;;;;;;4.82;1.70;;;16.00;99.90;;;;;;5039215;28;20510;-68
2021/06/30 05:28:28;;;;;;;4.72;1.70;;;15.90;99.90;;;;;;5058969;28;20389;-68
2021/06/30 05:31:12;;;;;;;3.10;1.70;;;15.80;99.90;;;;;;5065046;28;20442;-68
2021/06/30 05:33:52;;;;;;;3.45;1.50;;;15.80;99.90;;;;;;5068394;28;20862;-68
2021/06/30 05:36:36;;;;;;;3.05;1.58;;;15.80;99.90;;;;;;5074595;28;20601;-68
2021/06/30 05:39:22;;;;;;;5.80;1.85;;;15.90;99.90;;;;;;5087215;28;20117;-69
2021/06/30 05:42:06;;;;;;;3.47;1.60;;;16.00;99.90;;;;;;5088506;28;20102;-67
2021/06/30 05:44:50;;;;;;;2.97;1.45;;;16.20;99.90;;;;;;5052710;28;20814;-68
2021/06/30 05:47:35;;;;;;;4.97;1.35;;;16.20;99.90;;;;;;5068051;28;20378;-69
2021/06/30 05:50:20;;;;;;;3.05;1.70;;;16.40;99.90;;;;;;5087855;27;20499;-68
2021/06/30 05:53:04;;;;;;;4.18;1.73;;;16.40;99.90;;;;;;5059408;28;20430;-69
2021/06/30 05:55:44;;;;;;;5.45;2.05;;;16.50;99.90;;;;;;5050760;28;21064;-69
2021/06/30 05:58:28;;;;;;;4.93;2.33;;;16.60;99.90;;;;;;5127680;27;20379;-69
2021/06/30 06:01:13;;;;;;;3.65;1.92;;;16.90;99.90;;;;;;5117364;27;20439;-69
2021/06/30 06:03:58;;;;;;;4.18;1.80;;;17.00;99.90;;;;;;5061295;28;20445;-69
2021/06/30 06:06:37;;;;;;;5.35;2.20;;;17.00;99.90;;;;;;5061931;28;20518;-69
2021/06/30 06:09:24;;;;;;;5.30;2.60;;;17.10;99.90;;;;;;5061661;28;20139;-68
2021/06/30 06:12:08;;;;;;;2.72;1.77;;;17.20;99.90;;;;;;5121628;27;20944;-69
2021/06/30 06:14:53;;;;;;;4.40;1.83;;;17.10;99.90;;;;;;5129082;27;20447;-68
2021/06/30 06:17:38;;;;;;;4.20;2.00;;;17.00;99.90;;;;;;5063026;28;20868;-68
2021/06/30 06:20:17;;;;;;;5.47;2.60;;;16.90;99.90;;;;;;5067234;28;20504;-67
2021/06/30 06:23:02;;;;;;;3.85;1.80;;;17.00;99.90;;;;;;5063597;28;20449;-68
2021/06/30 06:25:46;;;;;;;4.30;2.03;;;17.10;99.90;;;;;;5052887;28;20388;-68
2021/06/30 06:28:33;;;;;;;4.15;1.75;;;17.20;99.90;;;;;;5063620;28;20512;-68
2021/06/30 06:31:15;;;;;;;3.40;1.73;;;17.10;99.90;;;;;;5060135;28;20384;-68
2021/06/30 06:34:19;;;;;;;3.95;1.42;;;17.20;99.90;;;;;;5080129;27;20377;-68
2021/06/30 06:37:03;;;;;;;4.18;2.05;;;17.30;99.90;;;;;;5054766;28;20472;-68
2021/06/30 06:39:48;;;;;;;3.00;1.60;;;17.50;99.90;;;;;;5060121;28;20725;-69
2021/06/30 06:42:32;;;;;;;3.85;1.40;;;17.60;99.90;;;;;;5062394;28;20445;-68
2021/06/30 06:45:17;;;;;;;3.83;1.55;;;17.70;99.90;;;;;;5078648;27;20394;-68
2021/06/30 06:48:02;;;;;;;2.20;1.15;;;17.60;99.90;;;;;;5061485;28;20472;-67
2021/06/30 06:50:46;;;;;;;2.65;1.35;;;17.50;99.90;;;;;;5128178;27;20386;-69
2021/06/30 06:53:31;;;;;;;3.20;1.23;;;17.30;99.90;;;;;;5114210;27;20519;-68
2021/06/30 06:56:19;;;;;;;3.03;1.50;;;17.10;99.90;;;;;;5049471;28;20537;-68
2021/06/30 06:59:03;;;;;;;4.70;1.50;;;17.10;99.90;;;;;;5126320;27;20884;-68
2021/06/30 07:01:48;;;;;;;4.47;1.40;;;16.90;99.90;;;;;;5048250;28;20526;-69
2021/06/30 07:04:32;;;;;;;3.85;1.50;;;17.00;99.90;;;;;;5068517;28;20829;-68
2021/06/30 07:07:17;;;;;;;3.42;1.20;;;16.90;99.90;;;;;;5057604;28;20392;-68
2021/06/30 07:10:02;;;;;;;2.90;1.00;;;17.10;99.90;;;;;;5106833;27;20814;-68
2021/06/30 07:12:46;;;;;;;1.85;1.00;;;17.20;99.90;;;;;;5113152;27;20512;-68
2021/06/30 07:15:31;;;;;;;2.17;1.15;;;17.20;99.90;;;;;;5059003;27;20745;-68
2021/06/30 07:18:17;;;;;;;3.10;1.05;;;17.30;99.90;;;;;;5049528;28;20519;-69
2021/06/30 07:21:04;;;;;;;2.95;1.50;;;17.30;99.90;;;;;;5069032;28;20444;-68
2021/06/30 07:23:43;;;;;;;5.10;1.30;;;17.20;99.90;;;;;;5054850;28;21007;-68
2021/06/30 07:26:28;;;;;;;1.52;1.00;;;17.20;99.90;;;;;;5059893;28;20392;-68
2021/06/30 07:29:12;;;;;;;5.55;3.13;;;17.20;99.90;;;;;;5052834;28;20419;-69
2021/06/30 07:31:55;;;;;;;2.88;1.35;;;17.10;99.90;;;;;;5057127;28;20506;-68
2021/06/30 07:34:40;;;;;;;2.20;1.20;;;17.30;99.90;;;;;;5103222;27;20524;-67
2021/06/30 07:37:24;;;;;;;2.97;1.10;;;17.50;99.90;;;;;;5054994;28;20502;-68
2021/06/30 07:40:09;;;;;;;3.05;0.98;;;17.90;99.90;;;;;;5067806;28;20508;-68
2021/06/30 07:42:54;;;;;;;7.78;1.00;;;18.40;99.90;;;;;;5066579;28;20841;-68
2021/06/30 07:45:33;;;;;;;2.38;0.82;;;18.40;99.90;;;;;;5067183;28;20383;-67
2021/06/30 07:48:14;;;;;;;5.85;1.00;;;18.50;99.90;;;;;;5062586;28;20680;-68
2021/06/30 07:50:53;;;;;;;4.13;1.15;;;18.40;99.90;;;;;;5077949;27;20390;-69
2021/06/30 07:53:33;;;;;;;3.00;0.93;;;18.40;99.90;;;;;;5066128;28;20457;-68
2021/06/30 07:56:13;;;;;;;4.95;0.93;;;18.50;99.90;;;;;;5080821;27;20128;-69
2021/06/30 07:58:52;;;;;;;3.00;0.90;;;18.40;99.90;;;;;;5063498;28;20889;-68
2021/06/30 08:01:33;;;;;;;5.10;0.90;;;18.80;99.90;;;;;;5055120;28;20404;-68
2021/06/30 08:04:12;;;;;;;2.42;0.80;;;18.70;99.90;;;;;;5055880;28;20458;-68
2021/06/30 08:06:53;;;;;;;7.95;1.20;;;18.60;99.90;;;;;;5037911;28;20447;-68
2021/06/30 08:09:35;;;;;;;2.60;1.02;;;18.60;99.90;;;;;;5084036;27;20514;-68
2021/06/30 08:12:15;;;;;;;4.85;0.90;;;18.30;99.90;;;;;;5042810;28;20894;-69
2021/06/30 08:14:54;;;;;;;3.55;0.93;;;18.30;99.90;;;;;;5069810;28;20395;-69
2021/06/30 08:17:35;;;;;;;3.17;1.00;;;18.30;99.90;;;;;;5066962;28;20375;-68
2021/06/30 08:20:14;;;;;;;3.58;1.23;;;18.50;99.90;;;;;;5083573;27;20398;-67
2021/06/30 08:22:54;;;;;;;1.77;1.00;;;18.40;99.90;;;;;;5067037;28;20448;-67
2021/06/30 08:25:34;;;;;;;2.97;0.98;;;18.30;99.90;;;;;;5060438;28;20399;-67
2021/06/30 08:28:18;;;;;;;2.30;1.00;;;18.50;99.90;;;;;;5063754;28;20396;-67
2021/06/30 08:30:58;;;;;;;2.20;0.95;;;18.80;99.90;;;;;;5128357;27;20390;-69
2021/06/30 08:33:38;;;;;;;2.90;0.80;;;19.00;99.90;;;;;;5057083;28;20387;-67
2021/06/30 08:36:18;;;;;;;1.35;0.90;;;19.20;99.90;;;;;;5075575;28;20397;-69
2021/06/30 08:38:57;;;;;;;1.70;0.95;;;19.10;99.90;;;;;;5068174;28;20934;-69
2021/06/30 08:41:37;;;;;;;2.78;1.00;;;19.20;99.90;;;;;;5065397;28;20413;-70
2021/06/30 08:44:17;;;;;;;2.55;1.00;;;18.90;99.90;;;;;;5066229;28;20555;-70
2021/06/30 08:46:57;;;;;;;2.95;1.10;;;18.80;99.90;;;;;;5061345;28;20616;-69
2021/06/30 08:49:41;;;;;;;3.38;1.20;;;18.60;99.90;;;;;;5064440;28;20442;-69
2021/06/30 08:52:21;;;;;;;2.92;1.20;;;18.30;99.90;;;;;;5067211;28;20908;-69
2021/06/30 08:55:06;;;;;;;3.72;1.20;;;18.30;99.90;;;;;;5063848;28;20886;-69
2021/06/30 08:57:48;;;;;;;1.85;0.90;;;18.50;99.90;;;;;;5067325;28;20939;-68
2021/06/30 09:00:27;;;;;;;3.35;1.23;;;18.40;99.90;;;;;;5129602;27;20382;-69
2021/06/30 09:03:12;;;;;;;7.65;2.97;;;18.30;99.90;;;;;;5061106;28;20885;-68
2021/06/30 09:08:44;;;;;;;2.72;1.20;;;18.50;99.90;;;;;;5088411;27;20403;-69
2021/06/30 09:11:26;;;;;;;3.83;1.00;;;18.50;99.90;;;;;;5060764;28;20526;-69
2021/06/30 09:14:22;;;;;;;1.85;0.90;;;18.50;99.90;;;;;;5068765;28;20962;-69
2021/06/30 09:17:07;;;;;;;1.48;0.90;;;18.40;99.90;;;;;;5067586;28;20436;-68
2021/06/30 09:19:55;;;;;;;1.65;0.98;;;18.70;99.90;;;;;;5061799;28;20387;-68
2021/06/30 09:22:46;;;;;;;1.15;0.70;;;18.90;99.90;;;;;;5071423;27;1328603;-68
2021/06/30 09:25:44;;;;;;;1.10;0.73;;;18.90;99.90;;;;;;5115762;27;20407;-69
2021/06/30 09:28:26;;;;;;;1.17;0.93;;;19.10;99.90;;;;;;5056946;28;20379;-69
2021/06/30 09:31:07;;;;;;;2.67;1.00;;;19.20;99.90;;;;;;5071307;27;20864;-68
2021/06/30 09:33:50;;;;;;;1.63;0.70;;;19.20;99.90;;;;;;5048620;28;20889;-68
2021/06/30 09:36:33;;;;;;;0.77;0.50;;;19.10;99.90;;;;;;5047168;28;20384;-69
2021/06/30 09:39:13;;;;;;;3.03;0.88;;;19.10;99.90;;;;;;5078698;28;20201;-69
2021/06/30 09:42:13;;;;;;;2.80;0.98;;;19.40;99.90;;;;;;5116102;27;20106;-68
2021/06/30 09:45:18;;;;;;;1.38;0.60;;;19.70;99.90;;;;;;5058364;28;20516;-68
2021/06/30 09:47:58;;;;;;;2.20;0.70;;;19.90;99.90;;;;;;5054080;28;20874;-69
2021/06/30 09:50:39;;;;;;;2.90;0.82;;;19.60;99.90;;;;;;5071682;27;20504;-68
2021/06/30 09:53:42;;;;;;;0.82;0.70;;;19.70;99.90;;;;;;5056873;28;20395;-69
2021/06/30 09:56:33;;;;;;;2.90;0.77;;;19.80;99.90;;;;;;5085703;28;20121;-69
2021/06/30 09:59:37;;;;;;;2.95;0.98;;;20.20;99.90;;;;;;5050237;28;20384;-69
2021/06/30 10:02:19;;;;;;;1.13;0.70;;;20.80;99.90;;;;;;5076804;28;20472;-68
2021/06/30 10:05:01;;;;;;;1.55;0.70;;;21.20;99.90;;;;;;5053146;28;20403;-68
2021/06/30 10:07:41;;;;;;;1.27;0.55;;;20.80;99.90;;;;;;5090398;27;20389;-68
2021/06/30 10:10:21;;;;;;;1.83;1.25;;;20.70;99.90;;;;;;5055497;28;20512;-66
2021/06/30 10:13:01;;;;;;;2.88;0.80;;;20.70;99.90;;;;;;5121982;27;20108;-68
2021/06/30 10:15:41;;;;;;;1.92;0.80;;;20.50;99.90;;;;;;5058693;28;20508;-67
2021/06/30 10:18:22;;;;;;;2.42;0.80;;;20.30;99.90;;;;;;5053928;28;20115;-68
2021/06/30 10:21:01;;;;;;;2.58;0.65;;;20.30;99.90;;;;;;5079468;28;20125;-66
2021/06/30 10:23:41;;;;;;;1.70;0.60;;;20.40;99.90;;;;;;5018089;28;20115;-67
2021/06/30 10:26:22;;;;;;;0.95;0.80;;;20.60;99.90;;;;;;5084264;28;20471;-68
2021/06/30 10:29:02;;;;;;;1.02;0.60;;;20.60;99.90;;;;;;5110498;27;20108;-67
2021/06/30 10:31:42;;;;;;;2.72;0.77;;;20.70;99.90;;;;;;5116879;27;20101;-68
2021/06/30 10:34:39;;;;;;;2.38;1.33;;;21.10;99.90;;;;;;5078481;28;20113;-68
2021/06/30 10:37:26;;;;;;;1.38;0.77;;;21.70;99.90;;;;;;5056557;28;20513;-68
2021/06/30 10:40:10;;;;;;;2.13;0.60;;;21.80;99.90;;;;;;5080576;27;20530;-69
2021/06/30 10:43:08;;;;;;;0.68;0.60;;;21.80;99.90;;;;;;5087691;27;20385;-68
2021/06/30 10:45:53;;;;;;;1.88;0.60;;;21.80;99.90;;;;;;5128788;27;20307;-69
2021/06/30 10:48:32;;;;;;;2.08;1.13;;;21.30;99.90;;;;;;5120254;27;20116;-68
2021/06/30 10:51:46;;;;;;;2.72;0.90;;;21.00;99.90;;;;;;5068485;28;20433;-69
2021/06/30 10:54:58;;;;;;;1.60;0.60;;;20.70;99.90;;;;;;5044802;28;20127;-68
2021/06/30 10:57:37;;;;;;;1.27;0.60;;;20.70;99.90;;;;;;5068267;28;20504;-68
2021/06/30 11:00:18;;;;;;;2.40;0.73;;;20.10;99.90;;;;;;5112617;27;20376;-68
2021/06/30 11:03:48;;;;;;;1.80;0.70;;;20.20;99.90;;;;;;5093606;27;20114;-69
2021/06/30 11:06:30;;;;;;;0.93;0.50;;;20.40;99.90;;;;;;5150067;27;20309;-68
2021/06/30 11:09:24;;;;;;;0.50;0.47;;;20.30;99.90;;;;;;5067468;28;20459;-67
2021/06/30 11:12:04;;;;;;;1.83;0.60;;;20.40;99.90;;;;;;5060995;28;20901;-67
2021/06/30 11:14:44;;;;;;;0.90;0.40;;;20.50;99.90;;;;;;5067291;28;20386;-68
2021/06/30 11:17:36;;;;;;;1.25;0.50;;;20.90;99.90;;;;;;5067762;28;20504;-68
2021/06/30 11:20:43;;;;;;;2.33;0.60;;;20.70;99.90;;;;;;5063805;28;20890;-68
2021/06/30 11:23:28;;;;;;;0.98;0.43;;;20.90;99.90;;;;;;5110196;27;20571;-68
2021/06/30 11:26:34;;;;;;;1.52;0.70;;;21.10;99.90;;;;;;5080256;27;21032;-68
2021/06/30 11:29:46;;;;;;;1.88;0.45;;;21.30;99.90;;;;;;5073434;28;20629;-69
2021/06/30 11:32:34;;;;;;;1.60;0.60;;;21.70;99.90;;;;;;5080610;28;20114;-69
2021/06/30 11:35:19;;;;;;;2.45;0.52;;;21.50;99.90;;;;;;5136681;27;20310;-68
2021/06/30 11:38:10;;;;;;;0.20;0.20;;;21.40;99.90;;;;;;5068426;28;21018;-68
2021/06/30 11:41:00;;;;;;;2.92;0.52;;;21.50;99.90;;;;;;5147853;27;20905;-68
2021/06/30 11:43:46;;;;;;;1.42;0.40;;;21.50;99.90;;;;;;5062440;27;20419;-69
2021/06/30 11:46:26;;;;;;;1.05;0.60;;;21.10;99.90;;;;;;5121607;27;20411;-68
2021/06/30 11:49:07;;;;;;;2.80;0.80;;;21.00;99.90;;;;;;5054494;28;20709;-68
2021/06/30 11:51:56;;;;;;;0.57;0.40;;;20.60;99.90;;;;;;5089129;27;20483;-68
2021/06/30 11:54:36;;;;;;;0.65;0.50;;;20.30;99.90;;;;;;5129687;27;20379;-68
2021/06/30 11:57:31;;;;;;;0.43;0.40;;;20.20;99.90;;;;;;5068097;28;20410;-68
2021/06/30 12:00:12;;;;;;;1.75;0.43;;;20.20;99.90;;;;;;5060942;28;20500;-68
2021/06/30 12:03:02;;;;;;;1.00;0.40;;;20.10;99.90;;;;;;5130454;27;20883;-68
2021/06/30 12:05:43;;;;;;;1.23;0.50;;;19.90;99.90;;;;;;5099838;27;20418;-69
2021/06/30 12:08:23;;;;;;;1.67;0.57;;;19.80;99.90;;;;;;5108786;27;20417;-68
2021/06/30 12:11:02;;;;;;;1.33;0.50;;;19.90;99.90;;;;;;5067098;28;20390;-68
2021/06/30 12:14:07;;;;;;;1.05;0.40;;;19.90;99.90;;;;;;5083759;27;20495;-69
2021/06/30 12:16:56;;;;;;;1.58;0.63;;;20.20;99.90;;;;;;5092770;27;20389;-69
2021/06/30 12:19:45;;;;;;;1.70;0.57;;;20.50;99.90;;;;;;5064148;28;20387;-69
2021/06/30 12:22:29;;;;;;;1.77;0.82;;;20.50;99.90;;;;;;5098337;27;20420;-69
2021/06/30 12:25:12;;;;;;;1.08;0.50;;;21.00;99.90;;;;;;5062116;28;20419;-68
2021/06/30 12:28:02;;;;;;;0.47;0.30;;;21.60;99.90;;;;;;5129076;27;20375;-70
2021/06/30 12:30:46;;;;;;;0.90;0.47;;;22.40;99.90;;;;;;5068320;28;20449;-70
2021/06/30 12:33:25;;;;;;;0.93;0.40;;;22.70;99.90;;;;;;5063962;28;20386;-70
2021/06/30 12:36:05;;;;;;;0.45;0.32;;;22.50;99.90;;;;;;5064901;28;20885;-71
2021/06/30 12:38:44;;;;;;;3.47;0.70;;;22.40;99.90;;;;;;5063715;28;20437;-69
2021/06/30 12:41:25;;;;;;;0.73;0.43;;;22.50;99.90;;;;;;5055479;28;20393;-69
2021/06/30 12:44:04;;;;;;;0.75;0.43;;;22.20;99.90;;;;;;5108329;27;20852;-69
2021/06/30 12:46:45;;;;;;;2.15;0.60;;;22.10;99.90;;;;;;5105572;27;20497;-69
2021/06/30 12:49:25;;;;;;;0.57;0.45;;;21.70;99.90;;;;;;5064449;28;20509;-70
2021/06/30 12:52:20;;;;;;;1.10;0.50;;;21.30;99.90;;;;;;5087728;27;20390;-69
2021/06/30 12:55:14;;;;;;;2.13;0.75;;;20.90;99.90;;;;;;5067548;28;20524;-69
2021/06/30 12:58:00;;;;;;;0.88;0.43;;;21.00;99.90;;;;;;5064687;28;20873;-69
2021/06/30 13:00:40;;;;;;;3.28;0.75;;;21.10;99.90;;;;;;5067264;28;20923;-69
2021/06/30 13:03:20;;;;;;;0.73;0.60;;;21.10;99.90;;;;;;5060988;28;20403;-69
2021/06/30 13:06:13;;;;;;;3.50;1.08;;;21.30;99.90;;;;;;5064251;28;20441;-70
2021/06/30 13:09:15;;;;;;;1.98;0.85;;;21.20;99.90;;;;;;5073333;27;20374;-69
2021/06/30 13:12:00;;;;;;;1.20;0.60;;;21.40;99.90;;;;;;5079624;28;20406;-69
2021/06/30 13:14:40;;;;;;;2.58;0.55;;;21.60;99.90;;;;;;5067895;28;20433;-70
2021/06/30 13:17:24;;;;;;;1.50;0.68;;;22.40;99.90;;;;;;5066716;28;20379;-70
2021/06/30 13:20:12;;;;;;;2.00;0.50;;;22.90;99.90;;;;;;5057772;28;20400;-70
2021/06/30 13:22:51;;;;;;;1.35;0.70;;;23.50;99.90;;;;;;5088103;27;20399;-70
2021/06/30 13:25:45;;;;;;;1.33;0.60;;;23.80;99.90;;;;;;5147081;27;20393;-70
2021/06/30 13:34:27;;;;;;;2.42;0.50;;;25.30;99.90;;;;;;5083304;27;20405;-67
2021/06/30 13:37:06;;;;;;;0.98;0.40;;;25.40;99.90;;;;;;5067874;28;20868;-67
2021/06/30 13:39:46;;;;;;;1.95;0.50;;;25.20;99.90;;;;;;5047322;28;20399;-66
2021/06/30 13:42:25;;;;;;;1.98;1.17;;;24.90;99.90;;;;;;5108206;27;20388;-66
2021/06/30 13:45:06;;;;;;;0.63;0.50;;;24.70;99.90;;;;;;5166610;27;20518;-66
2021/06/30 13:47:46;;;;;;;1.58;0.50;;;24.80;99.90;;;;;;5088354;27;20503;-66
2021/06/30 13:50:27;;;;;;;1.70;0.43;;;24.80;99.90;;;;;;5066540;28;20391;-66
2021/06/30 13:53:07;;;;;;;0.75;0.38;;;25.40;99.90;;;;;;5107931;27;20433;-66
2021/06/30 13:56:01;;;;;;;1.20;0.50;;;25.70;99.90;;;;;;5047992;28;20878;-65
2021/06/30 13:58:44;;;;;;;3.20;0.50;;;25.30;99.90;;;;;;5082751;28;20538;-66
2021/06/30 14:01:24;;;;;;;3.35;0.88;;;24.60;99.90;;;;;;5091402;27;20381;-66
2021/06/30 14:04:03;;;;;;;1.45;0.80;;;23.90;99.90;;;;;;5051308;28;20862;-66
2021/06/30 14:06:43;;;;;;;1.33;0.70;;;23.50;99.90;;;;;;5051305;28;20443;-65
2021/06/30 14:09:23;;;;;;;2.13;0.60;;;23.10;99.90;;;;;;5051885;28;20391;-67
2021/06/30 14:12:03;;;;;;;1.10;0.70;;;22.40;99.90;;;;;;5034046;28;20117;-66
2021/06/30 14:14:42;;;;;;;1.65;0.90;;;21.90;99.90;;;;;;5129247;27;20383;-66
2021/06/30 14:17:22;;;;;;;1.52;0.80;;;22.00;99.90;;;;;;5067001;28;20445;-66
2021/06/30 14:20:08;;;;;;;3.88;0.57;;;21.90;99.90;;;;;;5058280;28;20392;-66
2021/06/30 14:22:47;;;;;;;1.60;0.85;;;21.90;99.90;;;;;;5108978;27;20109;-66
2021/06/30 14:25:29;;;;;;;1.15;0.52;;;23.00;99.90;;;;;;5129597;27;20913;-67